Terminal Aerodrome Forecast
Issued by NWS

Home | Current Version | Previous Version | Text Only | Print | Product List | Glossary Off
Versions: 1 2 3 4 5 6 7 8 9 10 11 12 13 14 15

000
FTUS44 KTSA 221300 AAA
TAFRVS
TAF AMD
KRVS 221334Z 2214/2312 15003KT 3SM BR SCT060
     FM221500 15009KT P6SM SCT060 SCT250
     FM230000 14004KT P6SM BKN250
     FM230800 15003KT P6SM SCT050 BKN150 PROB30 2308/2312 5SM -SHRA
      BR BKN050=

USA.gov is the U.S. government's official web portal to all federal, state and local government web resources and services.